createdAt,value
2023-02-18T00:14:47.054Z,0
2023-02-18T00:30:06.530Z,0
2023-02-18T00:45:25.998Z,0
2023-02-18T01:00:45.488Z,0
2023-02-18T01:16:04.954Z,0
2023-02-18T01:31:24.413Z,0
2023-02-18T01:46:43.889Z,0
2023-02-18T02:02:03.361Z,0
2023-02-18T02:17:22.805Z,0
2023-02-18T02:32:42.302Z,0
2023-02-18T02:48:00.771Z,0
2023-02-18T03:03:20.261Z,0
2023-02-18T03:18:39.733Z,0
2023-02-18T03:33:59.175Z,0
2023-02-18T03:49:18.657Z,0
2023-02-18T04:04:38.135Z,0
2023-02-18T04:19:57.582Z,0
2023-02-18T04:35:16.085Z,0
2023-02-18T04:50:34.569Z,0
2023-02-18T05:05:54.053Z,0
2023-02-18T05:21:13.495Z,0
2023-02-18T05:36:32.009Z,0
2023-02-18T05:51:50.497Z,0
2023-02-18T06:07:09.930Z,0
2023-02-18T06:22:29.345Z,0
2023-02-18T06:37:48.779Z,0
2023-02-18T06:53:08.183Z,0
2023-02-18T07:08:27.625Z,5
2023-02-18T07:23:47.050Z,5
2023-02-18T07:39:06.464Z,5
2023-02-18T07:54:25.894Z,11
2023-02-18T08:09:45.340Z,11
2023-02-18T08:25:04.740Z,16
2023-02-18T08:40:24.188Z,11
2023-02-18T08:55:43.609Z,22
2023-02-18T09:11:02.064Z,33
2023-02-18T09:26:21.462Z,22
2023-02-18T09:41:40.907Z,28
2023-02-18T09:57:00.319Z,28
2023-02-18T10:12:19.757Z,28
2023-02-18T10:27:39.182Z,45
2023-02-18T10:42:58.589Z,28
2023-02-18T10:58:17.065Z,33
2023-02-18T11:13:35.478Z,33
2023-02-18T11:28:53.953Z,22
2023-02-18T11:44:12.398Z,22
2023-02-18T11:59:31.831Z,28
2023-02-18T12:14:51.248Z,28
2023-02-18T12:30:10.668Z,16
2023-02-18T12:45:30.074Z,16
2023-02-18T13:00:49.534Z,16
2023-02-18T13:16:09.078Z,16
2023-02-18T13:31:28.509Z,22
2023-02-18T13:46:47.906Z,22
2023-02-18T14:02:07.319Z,39
2023-02-18T14:17:26.771Z,11
2023-02-18T14:32:46.197Z,28
2023-02-18T14:48:05.630Z,39
2023-02-18T15:03:25.019Z,28
2023-02-18T15:18:44.442Z,22
2023-02-18T15:34:03.872Z,11
2023-02-18T15:49:23.330Z,5
2023-02-18T16:04:42.722Z,5
2023-02-18T16:20:02.178Z,0
2023-02-18T16:50:40.064Z,0
2023-02-18T17:05:59.627Z,0
2023-02-18T17:21:18.119Z,0
2023-02-18T17:36:37.624Z,0
2023-02-18T17:51:57.093Z,0
2023-02-18T18:07:16.533Z,0
2023-02-18T18:22:36.001Z,0
2023-02-18T18:37:55.471Z,0
2023-02-18T18:53:14.952Z,0
2023-02-18T19:08:34.432Z,0
2023-02-18T19:23:53.891Z,0
2023-02-18T19:39:13.351Z,0
2023-02-18T19:54:32.832Z,0
2023-02-18T20:09:52.305Z,0
2023-02-18T20:25:11.771Z,0
2023-02-18T20:40:30.255Z,0
2023-02-18T20:55:49.713Z,0
2023-02-18T21:11:09.185Z,0
2023-02-18T21:26:28.666Z,0
2023-02-18T21:41:48.140Z,0
2023-02-18T21:57:07.603Z,0
2023-02-18T22:12:27.078Z,0
2023-02-18T22:27:45.550Z,0
2023-02-18T22:43:04.048Z,0
2023-02-18T22:58:22.547Z,0
2023-02-18T23:13:41.032Z,0
2023-02-18T23:29:00.496Z,0
2023-02-18T23:44:18.985Z,0
2023-02-18T23:59:37.461Z,0
